createdAt,value
2019-02-07T00:00:53.076Z,10.73
2019-02-07T00:03:22.480Z,10.83
2019-02-07T00:05:51.846Z,10.63
2019-02-07T00:08:21.471Z,10.13
2019-02-07T00:10:50.860Z,10.40
2019-02-07T00:13:20.309Z,10.07
2019-02-07T00:15:49.744Z,9.50
2019-02-07T00:18:19.086Z,9.33
2019-02-07T00:20:48.517Z,10.10
2019-02-07T00:23:18.993Z,9.80
2019-02-07T00:25:48.467Z,9.77
2019-02-07T00:28:17.813Z,10.63
2019-02-07T00:30:47.241Z,10.90
2019-02-07T00:33:16.679Z,10.13
2019-02-07T00:35:46.061Z,9.97
2019-02-07T00:38:15.781Z,10.63
2019-02-07T00:40:45.302Z,10.70
2019-02-07T00:43:14.647Z,11.40
2019-02-07T00:45:44.082Z,11.43
2019-02-07T00:48:13.859Z,10.07
2019-02-07T00:50:43.229Z,11.37
2019-02-07T00:53:12.578Z,11.27
2019-02-07T00:55:41.945Z,11.33
2019-02-07T00:58:11.321Z,10.67
2019-02-07T01:00:40.732Z,9.57
2019-02-07T01:03:11.241Z,11.83
2019-02-07T01:06:00.314Z,10.67
2019-02-07T01:08:32.057Z,10.13
2019-02-07T01:11:01.413Z,12.03
2019-02-07T01:13:30.867Z,11.97
2019-02-07T01:16:00.628Z,11.27
2019-02-07T01:18:30.003Z,11.50
2019-02-07T01:20:59.359Z,11.20
2019-02-07T01:23:28.834Z,11.33
2019-02-07T01:25:58.292Z,11.08
2019-02-07T01:28:27.661Z,11.37
2019-02-07T01:30:57.143Z,11.13
2019-02-07T01:33:26.516Z,11.63
2019-02-07T01:35:55.877Z,12.27
2019-02-07T01:38:27.219Z,12.63
2019-02-07T01:40:57.366Z,12.30
2019-02-07T01:43:26.791Z,12.30
2019-02-07T01:45:56.445Z,11.20
2019-02-07T01:48:25.881Z,11.80
2019-02-07T01:50:55.259Z,12.75
2019-02-07T01:53:25.211Z,11.60
2019-02-07T02:14:34.361Z,11.07
2019-02-07T02:17:03.797Z,11.57
2019-02-07T02:19:33.172Z,11.57
2019-02-07T02:22:02.574Z,11.47
2019-02-07T02:24:32.006Z,11.80
2019-02-07T02:27:01.401Z,11.20
2019-02-07T02:29:30.809Z,12.13
2019-02-07T02:32:00.487Z,11.20
2019-02-07T02:34:29.847Z,11.93
2019-02-07T02:36:59.345Z,11.40
2019-02-07T02:39:28.718Z,11.57
2019-02-07T02:41:58.136Z,11.20
2019-02-07T02:44:29.297Z,11.07
2019-02-07T02:46:58.658Z,11.10
2019-02-07T02:49:28.011Z,11.50
2019-02-07T02:51:57.406Z,12.70
2019-02-07T02:54:33.884Z,11.57
2019-02-07T02:57:03.725Z,12.50
2019-02-07T02:59:33.808Z,12.77
2019-02-07T03:02:04.939Z,11.97
2019-02-07T03:04:41.461Z,11.77
2019-02-07T03:07:18.845Z,11.80
2019-02-07T03:09:56.152Z,11.57
2019-02-07T03:12:27.138Z,11.33
2019-02-07T03:15:15.126Z,11.97
2019-02-07T03:17:46.129Z,12.10
2019-02-07T03:20:26.631Z,12.40
2019-02-07T03:23:03.073Z,12.53
2019-02-07T03:25:36.643Z,12.17
2019-02-07T03:28:13.297Z,12.30
2019-02-07T03:30:53.979Z,12.37
2019-02-07T03:33:25.118Z,12.03
2019-02-07T03:35:56.125Z,13.13
2019-02-07T03:38:42.154Z,12.87
2019-02-07T03:41:25.342Z,13.10
2019-02-07T03:44:02.306Z,12.17
2019-02-07T03:46:45.560Z,12.70
2019-02-07T03:49:22.442Z,12.33
2019-02-07T03:52:05.761Z,13.97
2019-02-07T03:54:37.352Z,12.33
2019-02-07T03:57:08.365Z,12.60
2019-02-07T03:59:39.431Z,13.80
2019-02-07T04:02:22.516Z,12.13
2019-02-07T04:04:56.768Z,13.97
2019-02-07T04:07:30.891Z,13.47
2019-02-07T04:10:14.213Z,13.33
2019-02-07T04:12:45.327Z,13.37
2019-02-07T04:15:23.282Z,12.50
2019-02-07T04:17:57.258Z,13.53
2019-02-07T04:20:43.635Z,11.23
2019-02-07T04:23:18.376Z,11.77
2019-02-07T04:25:55.260Z,13.43
2019-02-07T04:28:28.801Z,13.83
2019-02-07T04:31:02.651Z,14.45
2019-02-07T04:33:39.837Z,14.80
2019-02-07T04:36:19.815Z,14.10
2019-02-07T04:38:59.737Z,15.30
2019-02-07T04:41:39.882Z,13.77
2019-02-07T04:44:10.912Z,13.83
2019-02-07T04:46:59.711Z,14.00
2019-02-07T04:49:33.617Z,15.00
2019-02-07T04:52:04.658Z,14.03
2019-02-07T04:54:48.394Z,14.67
2019-02-07T04:57:22.453Z,14.83
2019-02-07T04:59:53.446Z,14.73
2019-02-07T05:02:24.534Z,14.47
2019-02-07T05:05:04.008Z,14.40
2019-02-07T05:07:40.725Z,15.37
2019-02-07T05:10:23.474Z,15.73
2019-02-07T05:12:57.920Z,15.43
2019-02-07T05:15:35.361Z,15.10
2019-02-07T05:18:06.679Z,14.17
2019-02-07T05:20:40.749Z,15.70
2019-02-07T05:23:20.901Z,16.80
2019-02-07T05:25:54.660Z,16.33
2019-02-07T05:28:42.144Z,15.73
2019-02-07T05:31:13.157Z,16.30
2019-02-07T05:33:46.948Z,16.80
2019-02-07T05:36:23.865Z,15.60
2019-02-07T05:39:09.711Z,16.20
2019-02-07T05:41:40.847Z,16.77
2019-02-07T05:44:15.328Z,17.03
2019-02-07T05:46:58.986Z,16.27
2019-02-07T05:49:45.458Z,13.20
2019-02-07T05:52:19.072Z,15.60
2019-02-07T05:55:08.461Z,16.57
2019-02-07T05:57:42.181Z,15.23
2019-02-07T06:00:17.395Z,16.67
2019-02-07T06:02:51.917Z,16.90
2019-02-07T06:05:22.912Z,17.03
2019-02-07T06:08:02.858Z,18.17
2019-02-07T06:10:51.862Z,16.20
2019-02-07T06:13:34.614Z,15.73
2019-02-07T06:16:20.779Z,16.47
2019-02-07T06:18:53.179Z,15.60
2019-02-07T06:21:27.132Z,16.53
2019-02-07T06:24:13.210Z,15.77
2019-02-07T06:26:50.282Z,16.40
2019-02-07T06:29:24.263Z,14.93
2019-02-07T06:31:55.552Z,16.13
2019-02-07T06:34:36.445Z,15.83
2019-02-07T06:37:17.118Z,15.50
2019-02-07T06:39:48.133Z,16.30
2019-02-07T06:42:21.862Z,15.50
2019-02-07T06:44:52.871Z,15.43
2019-02-07T06:47:36.408Z,15.97
2019-02-07T06:50:12.462Z,14.93
2019-02-07T06:52:44.123Z,15.13
2019-02-07T06:55:33.592Z,15.23
2019-02-07T06:58:13.731Z,15.60
2019-02-07T07:00:47.893Z,15.40
2019-02-07T07:03:18.927Z,16.47
2019-02-07T07:05:55.716Z,15.90
2019-02-07T07:08:42.438Z,16.23
2019-02-07T07:11:13.437Z,15.17
2019-02-07T07:13:45.104Z,15.80
2019-02-07T07:16:30.910Z,15.90
2019-02-07T07:19:10.665Z,15.53
2019-02-07T07:21:42.517Z,14.67
2019-02-07T07:24:13.538Z,15.07
2019-02-07T07:26:44.530Z,15.67
2019-02-07T07:29:21.817Z,15.93
2019-02-07T07:32:09.194Z,16.32
2019-02-07T07:34:56.668Z,16.30
2019-02-07T07:37:39.863Z,15.63
2019-02-07T07:40:14.453Z,15.63
2019-02-07T07:43:01.295Z,15.63
2019-02-07T07:45:32.770Z,15.10
2019-02-07T07:48:09.555Z,15.67
2019-02-07T07:50:52.853Z,16.73
2019-02-07T07:53:39.947Z,15.13
2019-02-07T07:56:26.325Z,17.20
2019-02-07T07:59:13.389Z,16.70
2019-02-07T08:01:47.523Z,16.73
2019-02-07T08:04:21.575Z,16.33
2019-02-07T08:07:08.738Z,16.90
2019-02-07T08:09:42.425Z,16.20
2019-02-07T08:12:13.441Z,17.13
2019-02-07T08:14:53.335Z,16.27
2019-02-07T08:17:33.146Z,16.23
2019-02-07T08:20:22.756Z,17.40
2019-02-07T08:22:57.610Z,17.80
2019-02-07T08:25:34.290Z,17.45
2019-02-07T08:28:08.266Z,17.33
2019-02-07T08:30:57.454Z,17.37
2019-02-07T08:33:28.732Z,17.70
2019-02-07T08:36:02.311Z,18.70
2019-02-07T08:38:35.795Z,16.60
2019-02-07T08:41:06.935Z,16.37
2019-02-07T08:43:56.169Z,17.93
2019-02-07T08:46:33.388Z,16.90
2019-02-07T08:49:04.434Z,18.33
2019-02-07T08:51:38.364Z,19.83
2019-02-07T08:54:29.019Z,18.30
2019-02-07T08:57:15.754Z,17.57
2019-02-07T08:59:57.100Z,18.03
2019-02-07T09:02:51.589Z,19.60
2019-02-07T09:05:15.895Z,18.12
2019-02-07T09:08:03.028Z,18.00
2019-02-07T09:10:38.856Z,15.80
2019-02-07T09:13:12.898Z,17.67
2019-02-07T09:15:53.220Z,17.47
2019-02-07T09:18:24.226Z,17.33
2019-02-07T09:21:10.212Z,17.07
2019-02-07T09:23:47.528Z,15.37
2019-02-07T09:26:33.812Z,19.37
2019-02-07T09:29:21.310Z,16.97
2019-02-07T09:32:07.815Z,17.30
2019-02-07T09:34:47.720Z,18.13
2019-02-07T09:37:30.538Z,17.73
2019-02-07T09:40:19.539Z,17.03
2019-02-07T09:42:54.178Z,15.67
2019-02-07T09:45:25.510Z,16.73
2019-02-07T09:48:05.215Z,15.37
2019-02-07T09:50:36.205Z,14.97
2019-02-07T09:53:10.178Z,14.67
2019-02-07T09:55:41.214Z,14.83
2019-02-07T09:58:24.454Z,14.83
2019-02-07T10:00:56.120Z,15.37
2019-02-07T10:03:29.904Z,14.40
2019-02-07T10:06:13.129Z,15.60
2019-02-07T10:08:44.213Z,15.27
2019-02-07T10:11:15.222Z,14.97
2019-02-07T10:13:52.325Z,15.20
2019-02-07T10:16:23.335Z,14.87
2019-02-07T10:19:07.024Z,14.73
2019-02-07T10:21:41.001Z,13.87
2019-02-07T10:24:15.819Z,12.93
2019-02-07T10:26:46.822Z,14.30
2019-02-07T10:29:21.192Z,13.33
2019-02-07T10:32:10.228Z,13.72
2019-02-07T10:34:52.989Z,14.03
2019-02-07T10:37:36.980Z,13.43
2019-02-07T10:40:18.252Z,12.43
2019-02-07T10:42:55.362Z,11.70
2019-02-07T10:45:43.004Z,11.00
2019-02-07T10:48:20.063Z,11.93
2019-02-07T10:50:53.920Z,11.63
2019-02-07T10:53:28.238Z,11.73
2019-02-07T10:55:59.348Z,10.63
2019-02-07T10:58:45.659Z,10.93
2019-02-07T11:01:19.812Z,11.27
2019-02-07T11:03:50.993Z,14.00
2019-02-07T11:06:37.133Z,13.03
2019-02-07T11:09:15.763Z,10.77
2019-02-07T11:11:47.176Z,14.20
2019-02-07T11:14:23.749Z,14.20
2019-02-07T11:17:10.026Z,14.43
2019-02-07T11:19:41.024Z,11.83
2019-02-07T11:22:12.428Z,12.13
2019-02-07T11:25:01.184Z,13.17
2019-02-07T11:27:35.565Z,13.93
2019-02-07T11:30:28.448Z,15.63
2019-02-07T11:33:02.173Z,13.77
2019-02-07T11:35:49.116Z,15.40
2019-02-07T11:38:36.506Z,12.93
2019-02-07T11:41:11.342Z,9.30
2019-02-07T11:43:48.350Z,10.57
2019-02-07T11:46:37.510Z,12.53
2019-02-07T11:49:13.160Z,10.87
2019-02-07T11:52:01.312Z,11.47
2019-02-07T11:54:48.692Z,10.17
2019-02-07T11:57:36.222Z,10.03
2019-02-07T12:00:28.748Z,10.20
2019-02-07T12:03:05.573Z,8.63
2019-02-07T12:05:42.909Z,9.60
2019-02-07T12:08:31.458Z,11.73
2019-02-07T12:11:18.617Z,13.07
2019-02-07T12:13:52.732Z,10.27
2019-02-07T12:16:23.777Z,11.30
2019-02-07T12:18:54.793Z,9.50
2019-02-07T12:21:28.588Z,10.07
2019-02-07T12:24:15.128Z,10.13
2019-02-07T12:26:52.720Z,9.93
2019-02-07T12:29:24.096Z,9.90
2019-02-07T12:31:55.101Z,9.80
2019-02-07T12:34:29.427Z,9.20
2019-02-07T12:37:03.511Z,9.50
2019-02-07T12:39:50.711Z,8.83
2019-02-07T12:42:38.499Z,9.50
2019-02-07T12:45:11.827Z,9.97
2019-02-07T12:47:42.796Z,9.33
2019-02-07T12:50:23.946Z,9.28
2019-02-07T12:53:07.201Z,11.23
2019-02-07T12:55:51.995Z,10.37
2019-02-07T12:58:17.916Z,12.47
2019-02-07T13:00:51.922Z,12.77
2019-02-07T13:03:42.699Z,13.23
2019-02-07T13:06:33.173Z,10.23
2019-02-07T13:09:04.194Z,11.10
2019-02-07T13:11:37.671Z,9.83
2019-02-07T13:14:08.906Z,9.70
2019-02-07T13:16:46.456Z,8.80
2019-02-07T13:19:17.630Z,9.97
2019-02-07T13:21:51.280Z,9.60
2019-02-07T13:24:31.401Z,9.47
2019-02-07T13:27:15.585Z,8.13
2019-02-07T13:29:49.702Z,7.63
2019-02-07T13:32:32.780Z,5.63
2019-02-07T13:35:21.937Z,6.43
2019-02-07T13:37:53.112Z,5.83
2019-02-07T13:40:24.151Z,5.20
2019-02-07T13:42:55.531Z,7.30
2019-02-07T13:45:27.320Z,5.53
2019-02-07T13:48:04.533Z,5.93
2019-02-07T13:50:44.854Z,6.83
2019-02-07T13:53:32.069Z,6.40
2019-02-07T13:56:05.839Z,6.43
2019-02-07T13:58:53.708Z,4.90
2019-02-07T14:01:30.755Z,6.00
2019-02-07T14:04:01.810Z,6.17
2019-02-07T14:06:32.823Z,5.63
2019-02-07T14:09:20.009Z,3.60
2019-02-07T14:11:59.876Z,5.67
2019-02-07T14:14:43.374Z,5.70
2019-02-07T14:17:14.457Z,4.93
2019-02-07T14:20:03.395Z,5.07
2019-02-07T14:22:32.648Z,4.05
2019-02-07T14:25:06.523Z,5.20
2019-02-07T14:27:37.972Z,5.10
2019-02-07T14:30:17.372Z,9.23
2019-02-07T14:32:48.370Z,5.83
2019-02-07T14:35:28.350Z,6.43
2019-02-07T14:38:05.297Z,5.27
2019-02-07T14:40:36.342Z,4.80
2019-02-07T14:43:07.793Z,11.53
2019-02-07T14:45:38.817Z,9.30
2019-02-07T14:48:10.331Z,6.07
2019-02-07T14:50:39.719Z,5.73
2019-02-07T14:53:09.114Z,6.07
2019-02-07T14:55:38.529Z,5.60
2019-02-07T14:58:07.889Z,10.83
2019-02-07T15:00:37.408Z,12.83
2019-02-07T15:03:07.406Z,7.20
2019-02-07T15:05:36.777Z,6.83
2019-02-07T15:08:06.457Z,6.43
2019-02-07T15:10:36.534Z,6.70
2019-02-07T15:13:05.976Z,5.80
2019-02-07T15:15:35.367Z,5.07
2019-02-07T15:18:05.491Z,4.83
2019-02-07T15:20:34.867Z,5.03
2019-02-07T15:23:04.600Z,5.07
2019-02-07T15:25:33.978Z,4.17
2019-02-07T15:28:03.498Z,4.40
2019-02-07T15:30:34.329Z,4.23
2019-02-07T15:33:05.961Z,5.13
2019-02-07T15:35:40.057Z,4.27
2019-02-07T15:38:09.628Z,4.20
2019-02-07T15:40:39.029Z,4.63
2019-02-07T15:43:08.602Z,5.90
2019-02-07T15:45:38.481Z,5.17
2019-02-07T15:48:07.972Z,4.33
2019-02-07T15:50:39.551Z,4.10
2019-02-07T15:53:09.802Z,5.10
2019-02-07T15:55:39.192Z,4.03
2019-02-07T15:58:08.721Z,4.93
2019-02-07T16:00:48.821Z,4.67
2019-02-07T16:03:29.266Z,3.43
2019-02-07T16:05:58.940Z,3.20
2019-02-07T16:08:28.304Z,4.33
2019-02-07T16:10:57.671Z,4.27
2019-02-07T16:13:27.107Z,3.70
2019-02-07T16:15:56.553Z,3.80
2019-02-07T16:18:25.924Z,3.80
2019-02-07T16:20:55.300Z,5.22
2019-02-07T16:23:24.741Z,5.10
2019-02-07T16:25:54.128Z,5.10
2019-02-07T16:28:23.773Z,4.60
2019-02-07T16:30:53.148Z,4.90
2019-02-07T16:33:23.211Z,4.50
2019-02-07T16:35:52.691Z,5.27
2019-02-07T16:38:22.060Z,4.87
2019-02-07T16:40:52.532Z,5.00
2019-02-07T16:43:22.190Z,3.73
2019-02-07T16:45:51.563Z,5.43
2019-02-07T16:48:20.946Z,4.87
2019-02-07T16:50:59.973Z,4.90
2019-02-07T16:53:22.102Z,10.07
2019-02-07T16:55:51.471Z,5.27
2019-02-07T16:58:21.238Z,4.23
2019-02-07T17:00:50.622Z,3.90
2019-02-07T17:03:20.017Z,3.90
2019-02-07T17:05:49.681Z,5.67
2019-02-07T17:08:19.139Z,4.27
2019-02-07T17:10:48.526Z,3.40
2019-02-07T17:13:18.539Z,3.07
2019-02-07T17:15:47.985Z,3.80
2019-02-07T17:18:17.365Z,3.60
2019-02-07T17:20:46.897Z,4.20
2019-02-07T17:23:16.252Z,3.60
2019-02-07T17:25:45.847Z,4.33
2019-02-07T17:28:15.418Z,4.20
2019-02-07T17:30:44.850Z,3.70
2019-02-07T17:33:14.206Z,3.57
2019-02-07T17:35:44.406Z,4.70
2019-02-07T17:38:13.820Z,4.00
2019-02-07T17:40:43.310Z,4.03
2019-02-07T17:43:13.030Z,3.40
2019-02-07T17:45:42.426Z,4.07
2019-02-07T17:48:11.863Z,3.57
2019-02-07T17:50:41.980Z,5.83
2019-02-07T17:53:13.463Z,4.67
2019-02-07T17:55:43.008Z,3.63
2019-02-07T17:58:12.864Z,3.50
2019-02-07T18:00:50.962Z,3.33
2019-02-07T18:03:20.393Z,3.17
2019-02-07T18:05:49.848Z,3.20
2019-02-07T18:08:19.510Z,4.07
2019-02-07T18:10:49.607Z,4.93
2019-02-07T18:13:19.053Z,3.83
2019-02-07T18:15:48.455Z,3.57
2019-02-07T18:18:18.630Z,3.53
2019-02-07T18:20:48.042Z,4.43
2019-02-07T18:23:17.496Z,3.53
2019-02-07T18:25:47.906Z,4.00
2019-02-07T18:28:17.462Z,4.13
2019-02-07T18:30:46.886Z,4.17
2019-02-07T18:33:16.261Z,4.10
2019-02-07T18:35:46.206Z,3.77
2019-02-07T18:38:15.590Z,3.70
2019-02-07T18:40:45.347Z,3.37
2019-02-07T18:43:14.704Z,4.27
2019-02-07T18:45:44.062Z,4.20
2019-02-07T18:48:13.449Z,4.00
2019-02-07T18:50:42.948Z,4.37
2019-02-07T18:53:12.317Z,2.73
2019-02-07T18:55:41.987Z,3.13
2019-02-07T18:58:11.374Z,2.90
2019-02-07T19:00:41.406Z,3.10
2019-02-07T19:03:11.144Z,3.00
2019-02-07T19:05:40.498Z,4.00
2019-02-07T19:08:10.118Z,3.53
2019-02-07T19:10:40.887Z,3.50
2019-02-07T19:13:10.247Z,3.70
2019-02-07T19:15:43.968Z,3.00
2019-02-07T19:18:13.415Z,3.07
2019-02-07T19:20:42.866Z,2.60
2019-02-07T19:23:12.429Z,3.07
2019-02-07T19:25:42.014Z,2.63
2019-02-07T19:28:11.514Z,2.90
2019-02-07T19:30:40.974Z,3.17
2019-02-07T19:33:10.333Z,3.37
2019-02-07T19:35:40.263Z,3.37
2019-02-07T19:38:10.730Z,2.90
2019-02-07T19:40:40.407Z,2.80
2019-02-07T19:43:09.783Z,3.17
2019-02-07T19:45:39.137Z,3.60
2019-02-07T19:48:09.157Z,3.03
2019-02-07T19:50:38.518Z,3.07
2019-02-07T19:53:07.900Z,3.00
2019-02-07T19:55:37.643Z,3.20
2019-02-07T19:58:07.207Z,3.30
2019-02-07T20:00:39.370Z,3.10
2019-02-07T20:03:08.035Z,3.30
2019-02-07T20:05:37.534Z,3.50
2019-02-07T20:08:07.140Z,3.47
2019-02-07T20:10:36.912Z,2.90
2019-02-07T20:13:06.637Z,3.30
2019-02-07T20:15:40.116Z,3.13
2019-02-07T20:18:11.672Z,2.93
2019-02-07T20:20:41.652Z,2.67
2019-02-07T20:23:11.075Z,3.57
2019-02-07T20:25:40.841Z,2.93
2019-02-07T20:28:10.301Z,3.40
2019-02-07T20:30:43.294Z,2.97
2019-02-07T20:33:13.220Z,2.80
2019-02-07T20:35:42.665Z,3.10
2019-02-07T20:38:12.159Z,2.70
2019-02-07T20:40:43.486Z,2.83
2019-02-07T20:43:12.851Z,2.87
2019-02-07T20:45:42.211Z,2.87
2019-02-07T20:48:11.579Z,3.60
2019-02-07T20:50:40.946Z,2.80
2019-02-07T20:53:10.572Z,3.10
2019-02-07T20:55:40.044Z,3.60
2019-02-07T20:58:10.258Z,3.80
2019-02-07T21:00:40.376Z,3.13
2019-02-07T21:03:09.823Z,3.27
2019-02-07T21:05:39.270Z,3.00
2019-02-07T21:08:08.767Z,2.80
2019-02-07T21:10:40.177Z,2.62
2019-02-07T21:13:09.990Z,5.00
2019-02-07T21:15:39.356Z,3.30
2019-02-07T21:18:10.137Z,2.93
2019-02-07T21:20:39.518Z,3.43
2019-02-07T21:23:09.018Z,3.93
2019-02-07T21:25:43.273Z,2.83
2019-02-07T21:28:12.941Z,2.77
2019-02-07T21:30:42.322Z,3.03
2019-02-07T21:33:11.734Z,3.00
2019-02-07T21:35:41.110Z,2.70
2019-02-07T21:38:10.703Z,3.07
2019-02-07T21:40:40.117Z,2.42
2019-02-07T21:43:10.167Z,3.00
2019-02-07T21:45:39.553Z,3.23
2019-02-07T21:48:09.676Z,3.10
2019-02-07T21:50:39.202Z,2.70
2019-02-07T21:53:08.552Z,2.60
2019-02-07T21:55:38.809Z,2.40
2019-02-07T21:58:10.205Z,2.30
2019-02-07T22:00:46.130Z,2.97
2019-02-07T22:03:34.848Z,2.70
2019-02-07T22:06:04.367Z,2.50
2019-02-07T22:08:34.114Z,2.80
2019-02-07T22:11:03.484Z,2.47
2019-02-07T22:13:32.911Z,3.30
2019-02-07T22:16:02.443Z,2.53
2019-02-07T22:18:33.203Z,2.43
2019-02-07T22:21:02.582Z,2.33
2019-02-07T22:23:32.241Z,2.83
2019-02-07T22:26:01.928Z,3.10
2019-02-07T22:28:31.384Z,2.50
2019-02-07T22:31:02.515Z,2.40
2019-02-07T22:33:31.866Z,2.30
2019-02-07T22:36:01.257Z,2.43
2019-02-07T22:38:30.881Z,2.60
2019-02-07T22:41:00.245Z,2.60
2019-02-07T22:43:31.613Z,2.30
2019-02-07T22:46:01.966Z,2.70
2019-02-07T22:48:31.307Z,2.33
2019-02-07T22:51:00.760Z,3.17
2019-02-07T22:53:30.506Z,2.83
2019-02-07T22:55:59.866Z,2.30
2019-02-07T22:58:29.233Z,2.37
2019-02-07T23:01:03.218Z,2.50
2019-02-07T23:03:32.658Z,3.30
2019-02-07T23:06:08.191Z,2.70
2019-02-07T23:08:37.562Z,2.17
2019-02-07T23:11:08.834Z,2.47
2019-02-07T23:13:38.254Z,2.90
2019-02-07T23:16:09.763Z,2.20
2019-02-07T23:18:39.575Z,2.20
2019-02-07T23:21:09.576Z,2.30
2019-02-07T23:23:38.927Z,2.40
2019-02-07T23:26:08.534Z,2.20
2019-02-07T23:28:37.877Z,2.23
2019-02-07T23:31:08.046Z,2.40
2019-02-07T23:33:39.645Z,2.37
2019-02-07T23:36:09.309Z,2.13
2019-02-07T23:38:38.902Z,2.50
2019-02-07T23:41:14.723Z,2.93
2019-02-07T23:43:46.174Z,2.57
2019-02-07T23:46:15.387Z,2.47
2019-02-07T23:48:45.532Z,2.13
2019-02-07T23:51:15.009Z,2.50
2019-02-07T23:53:44.469Z,3.57
2019-02-07T23:56:21.013Z,2.83
2019-02-07T23:58:50.378Z,2.47
